Time;durP1;ratioP1;P1;durP2;ratioP2;P2;SDS_P1;SDS_P2;PMS_P1;PMS_P2;Temp;Humidity;BMP_temperature;BMP_pressure;BME280_temperature;BME280_humidity;BME280_pressure;Samples;Min_cycle;Max_cycle;Signal;HPM_P1;HPM_P2
2021/08/18 00:01:47;;;;;;;8.80;4.78;;;;;;;;;;6127351;23;20620;-90
2021/08/18 00:04:53;;;;;;;11.05;4.88;;;;;;;;;;6127951;23;20254;-90
2021/08/18 00:08:00;;;;;;;9.50;4.53;;;;;;;;;;6120911;23;20173;-90
2021/08/18 00:11:05;;;;;;;10.38;4.90;;;;;;;;;;6137948;23;20177;-89
2021/08/18 00:14:10;;;;;;;10.90;5.05;;;;;;;;;;6120588;23;20189;-89
2021/08/18 00:17:16;;;;;;;9.27;4.68;;;;;;;;;;6119116;23;20169;-89
2021/08/18 00:20:22;;;;;;;8.15;4.43;;;;;;;;;;6120235;23;20197;-89
2021/08/18 00:23:28;;;;;;;9.52;4.72;;;;;;;;;;6120076;23;20304;-90
2021/08/18 00:26:33;;;;;;;9.63;4.63;;;;;;;;;;6120113;23;20247;-88
2021/08/18 00:29:38;;;;;;;11.10;4.40;;;;;;;;;;6120622;23;20176;-90
2021/08/18 00:32:43;;;;;;;9.40;5.00;;;;;;;;;;6121147;23;20181;-91
2021/08/18 00:35:50;;;;;;;10.55;5.28;;;;;;;;;;6120218;23;20180;-89
2021/08/18 00:38:55;;;;;;;11.63;4.90;;;;;;;;;;6137802;23;20193;-91
2021/08/18 00:42:01;;;;;;;10.60;4.97;;;;;;;;;;6121198;23;20193;-91
2021/08/18 00:45:07;;;;;;;13.32;5.20;;;;;;;;;;6137861;23;20177;-89
2021/08/18 00:48:12;;;;;;;8.70;4.28;;;;;;;;;;6120226;23;20168;-90
2021/08/18 00:51:18;;;;;;;13.73;5.20;;;;;;;;;;6121491;23;20177;-90
2021/08/18 00:54:24;;;;;;;12.68;4.50;;;;;;;;;;6120520;23;20224;-89
2021/08/18 00:57:29;;;;;;;11.95;4.32;;;;;;;;;;6119983;23;20164;-89
2021/08/18 01:04:05;;;;;;;9.52;4.45;;;;;;;;;;6089465;23;20620;-89
2021/08/18 01:07:12;;;;;;;11.13;5.55;;;;;;;;;;6119404;23;20177;-90
2021/08/18 01:10:18;;;;;;;9.13;4.55;;;;;;;;;;6120249;23;20165;-90
2021/08/18 01:13:24;;;;;;;10.95;5.20;;;;;;;;;;6119829;23;20245;-89
2021/08/18 01:16:29;;;;;;;12.85;5.20;;;;;;;;;;6118454;23;20289;-88
2021/08/18 01:19:35;;;;;;;11.82;5.18;;;;;;;;;;6120355;23;20168;-89
2021/08/18 01:22:42;;;;;;;10.45;4.95;;;;;;;;;;6119918;23;20173;-89
2021/08/18 01:25:47;;;;;;;10.38;5.20;;;;;;;;;;6118859;23;20173;-88
2021/08/18 01:28:54;;;;;;;11.07;5.03;;;;;;;;;;6118354;23;20499;-90
2021/08/18 01:32:15;;;;;;;8.90;4.35;;;;;;;;;;6118280;23;20181;-89
2021/08/18 01:35:45;;;;;;;11.60;5.50;;;;;;;;;;6119589;23;20624;-89
2021/08/18 01:39:04;;;;;;;11.88;4.93;;;;;;;;;;6120264;23;20205;-88
2021/08/18 01:42:21;;;;;;;11.52;5.13;;;;;;;;;;6118573;23;20266;-90
2021/08/18 01:45:30;;;;;;;12.40;5.07;;;;;;;;;;6120995;23;20173;-89
2021/08/18 01:48:35;;;;;;;11.27;5.35;;;;;;;;;;6121119;23;20173;-89
2021/08/18 01:51:44;;;;;;;13.10;5.70;;;;;;;;;;6120219;23;20185;-90
2021/08/18 01:54:49;;;;;;;11.95;5.28;;;;;;;;;;6119163;23;20173;-91
2021/08/18 01:57:54;;;;;;;10.63;4.75;;;;;;;;;;6118279;23;20248;-89
2021/08/18 02:01:02;;;;;;;15.15;5.18;;;;;;;;;;6118679;23;20212;-90
2021/08/18 02:04:07;;;;;;;11.80;5.28;;;;;;;;;;6119585;23;20177;-90
2021/08/18 02:07:12;;;;;;;12.68;5.30;;;;;;;;;;6118531;23;20222;-90
2021/08/18 02:10:19;;;;;;;13.70;5.43;;;;;;;;;;6119119;23;20213;-90
2021/08/18 02:13:25;;;;;;;11.85;5.47;;;;;;;;;;6119291;23;20705;-90
2021/08/18 02:16:33;;;;;;;11.00;5.15;;;;;;;;;;6121595;23;20173;-89
2021/08/18 02:19:39;;;;;;;11.20;5.18;;;;;;;;;;6120686;23;20181;-92
2021/08/18 02:22:45;;;;;;;12.18;5.22;;;;;;;;;;6139122;23;20165;-89
2021/08/18 02:25:50;;;;;;;12.10;5.45;;;;;;;;;;6120884;23;20172;-91
2021/08/18 02:28:58;;;;;;;14.15;4.75;;;;;;;;;;6138519;23;20506;-91
2021/08/18 02:32:04;;;;;;;11.43;5.25;;;;;;;;;;6122085;23;20608;-89
2021/08/18 02:35:10;;;;;;;12.77;5.53;;;;;;;;;;6122181;23;20173;-89
2021/08/18 02:42:10;;;;;;;13.25;5.55;;;;;;;;;;6137805;23;20192;-89
2021/08/18 02:45:32;;;;;;;11.88;5.40;;;;;;;;;;6137477;23;20509;-90
2021/08/18 02:48:39;;;;;;;11.35;4.85;;;;;;;;;;6121036;23;20224;-89
2021/08/18 02:51:44;;;;;;;11.63;5.20;;;;;;;;;;6120865;23;20173;-90
2021/08/18 02:54:55;;;;;;;14.38;5.45;;;;;;;;;;6119969;23;20247;-91
2021/08/18 02:58:00;;;;;;;8.73;4.55;;;;;;;;;;6136638;23;20169;-90
2021/08/18 03:01:05;;;;;;;10.48;5.35;;;;;;;;;;6120809;23;20253;-90
2021/08/18 03:04:11;;;;;;;10.98;4.78;;;;;;;;;;6120824;23;20501;-91
2021/08/18 03:07:17;;;;;;;12.15;5.38;;;;;;;;;;6120257;23;20517;-90
2021/08/18 03:10:22;;;;;;;12.50;5.30;;;;;;;;;;6120392;23;20172;-89
2021/08/18 03:13:29;;;;;;;12.68;5.15;;;;;;;;;;6138292;23;20697;-90
2021/08/18 03:16:34;;;;;;;15.98;5.35;;;;;;;;;;6120885;23;20668;-90
2021/08/18 03:19:41;;;;;;;13.73;5.20;;;;;;;;;;6121601;23;20244;-91
2021/08/18 03:22:46;;;;;;;14.65;5.68;;;;;;;;;;6121393;23;20193;-90
2021/08/18 03:25:52;;;;;;;14.15;5.35;;;;;;;;;;6120331;23;20157;-90
2021/08/18 03:28:57;;;;;;;12.20;5.63;;;;;;;;;;6120955;23;20165;-90
2021/08/18 03:32:02;;;;;;;14.07;6.07;;;;;;;;;;6120027;23;20209;-89
2021/08/18 03:35:09;;;;;;;16.77;5.82;;;;;;;;;;6121002;23;20176;-90
2021/08/18 03:38:15;;;;;;;16.17;5.75;;;;;;;;;;6121491;23;20169;-89
2021/08/18 03:41:19;;;;;;;20.50;6.47;;;;;;;;;;6120671;23;20202;-90
2021/08/18 03:44:25;;;;;;;12.63;5.57;;;;;;;;;;6119878;23;20244;-89
2021/08/18 03:47:30;;;;;;;15.07;6.18;;;;;;;;;;6120249;23;20172;-89
2021/08/18 03:50:37;;;;;;;13.88;5.10;;;;;;;;;;6120727;23;20173;-88
2021/08/18 03:53:42;;;;;;;14.70;5.95;;;;;;;;;;6120754;23;20261;-90
2021/08/18 04:00:56;;;;;;;15.98;6.00;;;;;;;;;;6136905;23;20248;-90
2021/08/18 04:04:02;;;;;;;10.25;5.10;;;;;;;;;;6120532;23;20165;-91
2021/08/18 04:07:08;;;;;;;16.02;5.55;;;;;;;;;;6119801;23;20245;-90
2021/08/18 04:10:13;;;;;;;12.85;5.75;;;;;;;;;;6139131;23;20176;-89
2021/08/18 04:13:18;;;;;;;13.23;5.50;;;;;;;;;;6121514;23;20168;-90
2021/08/18 04:16:24;;;;;;;11.45;5.43;;;;;;;;;;6121576;23;20169;-90
2021/08/18 04:19:29;;;;;;;12.38;5.43;;;;;;;;;;6120400;23;20176;-89
2021/08/18 04:22:35;;;;;;;17.42;6.10;;;;;;;;;;6121533;23;20202;-89
2021/08/18 04:25:41;;;;;;;14.48;5.72;;;;;;;;;;6123055;23;20181;-91
2021/08/18 04:28:47;;;;;;;15.45;6.05;;;;;;;;;;6121340;23;20177;-89
2021/08/18 04:31:52;;;;;;;15.23;6.35;;;;;;;;;;6121986;23;20172;-90
2021/08/18 04:34:57;;;;;;;14.63;6.07;;;;;;;;;;6121032;23;20192;-89
2021/08/18 04:38:04;;;;;;;13.50;5.95;;;;;;;;;;6120798;23;20267;-89
2021/08/18 04:41:09;;;;;;;13.80;6.07;;;;;;;;;;6122124;23;20201;-90
2021/08/18 04:44:15;;;;;;;14.48;5.90;;;;;;;;;;6120871;23;20168;-89
2021/08/18 04:47:20;;;;;;;13.73;6.15;;;;;;;;;;6118522;23;20251;-91
2021/08/18 04:50:26;;;;;;;16.70;6.32;;;;;;;;;;6120590;23;20176;-90
2021/08/18 04:53:35;;;;;;;14.65;6.15;;;;;;;;;;6134603;23;20213;-88
2021/08/18 04:56:43;;;;;;;16.77;6.43;;;;;;;;;;6122506;23;20174;-90
2021/08/18 04:59:48;;;;;;;16.55;6.45;;;;;;;;;;6119159;23;20197;-90
2021/08/18 05:02:56;;;;;;;17.35;6.25;;;;;;;;;;6121411;23;20192;-89
2021/08/18 05:06:07;;;;;;;16.25;6.30;;;;;;;;;;6141424;23;20177;-89
2021/08/18 05:09:16;;;;;;;16.95;6.13;;;;;;;;;;6125752;23;20165;-89
2021/08/18 05:15:47;;;;;;;16.40;6.68;;;;;;;;;;6141637;23;20246;-89
2021/08/18 05:18:59;;;;;;;16.27;7.15;;;;;;;;;;6123848;23;20210;-90
2021/08/18 05:22:04;;;;;;;17.40;7.10;;;;;;;;;;6123002;23;20176;-89
2021/08/18 05:25:15;;;;;;;14.45;6.38;;;;;;;;;;6121717;23;20193;-89
2021/08/18 05:28:20;;;;;;;15.20;6.38;;;;;;;;;;6139299;23;20192;-89
2021/08/18 05:31:25;;;;;;;19.83;7.68;;;;;;;;;;6121951;23;20240;-88
2021/08/18 05:34:30;;;;;;;18.88;6.82;;;;;;;;;;6120569;23;20465;-90
2021/08/18 05:37:37;;;;;;;15.07;6.30;;;;;;;;;;6122266;23;20271;-89
2021/08/18 05:40:43;;;;;;;16.42;6.97;;;;;;;;;;6121814;23;20169;-90
2021/08/18 05:43:48;;;;;;;15.57;6.55;;;;;;;;;;6121240;23;20236;-90
2021/08/18 05:46:54;;;;;;;15.65;6.38;;;;;;;;;;6120894;23;20173;-88
2021/08/18 05:49:59;;;;;;;16.67;6.80;;;;;;;;;;6123336;23;20256;-89
2021/08/18 05:53:07;;;;;;;17.92;7.28;;;;;;;;;;6122626;23;20166;-87
2021/08/18 05:56:13;;;;;;;15.45;6.90;;;;;;;;;;6141336;23;20175;-87
2021/08/18 05:59:18;;;;;;;18.10;7.57;;;;;;;;;;6122169;23;20177;-88
2021/08/18 06:02:24;;;;;;;19.10;7.20;;;;;;;;;;6141632;23;20237;-90
2021/08/18 06:05:29;;;;;;;15.18;6.90;;;;;;;;;;6124416;23;20173;-88
2021/08/18 06:08:34;;;;;;;19.95;7.18;;;;;;;;;;6125004;23;20214;-89
2021/08/18 06:11:42;;;;;;;17.58;7.93;;;;;;;;;;6123012;23;20172;-88
2021/08/18 06:14:49;;;;;;;16.33;6.93;;;;;;;;;;6125550;23;20173;-89
2021/08/18 06:21:12;;;;;;;16.92;6.72;;;;;;;;;;6126659;23;20728;-88
2021/08/18 06:24:27;;;;;;;17.75;7.07;;;;;;;;;;6122101;23;20194;-89
2021/08/18 06:27:33;;;;;;;19.40;7.85;;;;;;;;;;6120537;23;20622;-89
2021/08/18 06:33:57;;;;;;;20.52;7.57;;;;;;;;;;6139332;23;20169;-91
2021/08/18 06:37:02;;;;;;;18.75;7.53;;;;;;;;;;6138869;23;20160;-90
2021/08/18 06:40:08;;;;;;;18.05;7.95;;;;;;;;;;6123982;23;20157;-89
2021/08/18 06:43:15;;;;;;;21.52;8.15;;;;;;;;;;6122184;23;20217;-89
2021/08/18 06:46:20;;;;;;;16.30;7.22;;;;;;;;;;6120666;23;20168;-89
2021/08/18 06:49:25;;;;;;;20.80;8.40;;;;;;;;;;6120496;23;20168;-89
2021/08/18 06:52:30;;;;;;;17.10;7.43;;;;;;;;;;6121108;23;20304;-90
2021/08/18 06:55:35;;;;;;;19.48;7.68;;;;;;;;;;6121011;23;20169;-89
2021/08/18 06:58:42;;;;;;;20.92;7.65;;;;;;;;;;6121155;23;20173;-90
2021/08/18 07:01:48;;;;;;;17.08;7.57;;;;;;;;;;6123773;23;20189;-88
2021/08/18 07:08:11;;;;;;;20.92;7.93;;;;;;;;;;6125848;23;20298;-90
2021/08/18 07:11:17;;;;;;;20.92;8.05;;;;;;;;;;6128284;23;20161;-90
2021/08/18 07:14:24;;;;;;;18.88;7.40;;;;;;;;;;6121686;23;20174;-89
2021/08/18 07:17:29;;;;;;;16.23;6.50;;;;;;;;;;6122783;23;20170;-88
2021/08/18 07:20:47;;;;;;;18.77;7.38;;;;;;;;;;6122983;23;20201;-88
2021/08/18 07:23:53;;;;;;;19.92;7.90;;;;;;;;;;6121579;23;20209;-89
2021/08/18 07:26:58;;;;;;;21.58;8.38;;;;;;;;;;6119435;23;20173;-88
2021/08/18 07:30:05;;;;;;;15.63;7.35;;;;;;;;;;6119725;23;20255;-90
2021/08/18 07:33:10;;;;;;;17.40;7.97;;;;;;;;;;6124097;23;20172;-88
2021/08/18 07:36:15;;;;;;;17.60;7.47;;;;;;;;;;6124749;23;20184;-90
2021/08/18 07:39:21;;;;;;;18.30;8.15;;;;;;;;;;6127214;23;20176;-90
2021/08/18 07:42:26;;;;;;;18.10;7.40;;;;;;;;;;6127171;23;20245;-89
2021/08/18 07:45:34;;;;;;;18.67;7.68;;;;;;;;;;6121853;23;20245;-89
2021/08/18 07:48:39;;;;;;;18.55;7.63;;;;;;;;;;6120105;23;20508;-88
2021/08/18 07:51:45;;;;;;;20.92;7.85;;;;;;;;;;6138942;23;20193;-89
2021/08/18 07:54:50;;;;;;;19.92;8.57;;;;;;;;;;6135787;23;20185;-90
2021/08/18 07:57:55;;;;;;;22.90;8.27;;;;;;;;;;6117791;23;20185;-91
2021/08/18 08:01:01;;;;;;;19.90;8.02;;;;;;;;;;6116508;23;20196;-90
2021/08/18 08:04:06;;;;;;;21.00;8.20;;;;;;;;;;6116374;23;20217;-89
2021/08/18 08:07:11;;;;;;;19.40;8.13;;;;;;;;;;6115809;23;20170;-88
2021/08/18 08:10:16;;;;;;;17.73;7.72;;;;;;;;;;6118536;23;20196;-89
2021/08/18 08:13:21;;;;;;;18.98;8.60;;;;;;;;;;6119548;23;20173;-90
2021/08/18 08:16:28;;;;;;;18.05;7.85;;;;;;;;;;6117966;23;20173;-91
2021/08/18 08:19:34;;;;;;;18.75;7.70;;;;;;;;;;6117648;23;20181;-90
2021/08/18 08:22:41;;;;;;;18.02;7.82;;;;;;;;;;6116968;23;20209;-90
2021/08/18 08:25:46;;;;;;;18.42;8.05;;;;;;;;;;6117098;23;20161;-87
2021/08/18 08:28:52;;;;;;;16.25;6.82;;;;;;;;;;6115862;23;20177;-88
2021/08/18 08:32:00;;;;;;;14.90;7.30;;;;;;;;;;6119171;23;20241;-88
2021/08/18 08:35:05;;;;;;;15.30;6.63;;;;;;;;;;6116786;23;20290;-88
2021/08/18 08:38:10;;;;;;;22.02;7.47;;;;;;;;;;6137538;23;20260;-89
2021/08/18 08:41:17;;;;;;;19.50;6.70;;;;;;;;;;6120101;23;20165;-89
2021/08/18 08:44:22;;;;;;;18.15;7.45;;;;;;;;;;6120127;23;20181;-88
2021/08/18 08:47:29;;;;;;;19.52;7.75;;;;;;;;;;6121245;23;20256;-87
2021/08/18 08:50:34;;;;;;;19.60;7.25;;;;;;;;;;6119254;23;20168;-88
2021/08/18 08:53:40;;;;;;;16.40;6.90;;;;;;;;;;6136087;23;20180;-89
2021/08/18 08:56:45;;;;;;;20.08;8.50;;;;;;;;;;6118764;23;20177;-88
2021/08/18 08:59:50;;;;;;;20.65;8.05;;;;;;;;;;6118176;23;20233;-89
2021/08/18 09:03:10;;;;;;;23.02;7.70;;;;;;;;;;6119152;23;20527;-88
2021/08/18 09:06:20;;;;;;;15.65;6.55;;;;;;;;;;6121163;23;20294;-90
2021/08/18 09:09:25;;;;;;;15.43;6.95;;;;;;;;;;6119243;23;20174;-88
2021/08/18 09:12:32;;;;;;;18.73;6.93;;;;;;;;;;6118900;23;20174;-89
2021/08/18 09:15:37;;;;;;;17.42;6.72;;;;;;;;;;6119034;23;20172;-89
2021/08/18 09:18:45;;;;;;;17.92;6.82;;;;;;;;;;6119912;23;20177;-89
2021/08/18 09:21:50;;;;;;;14.65;6.32;;;;;;;;;;6117148;23;20301;-87
2021/08/18 09:25:09;;;;;;;16.15;6.07;;;;;;;;;;6118775;23;20242;-88
2021/08/18 09:28:18;;;;;;;17.77;6.40;;;;;;;;;;6117477;23;20169;-89
2021/08/18 09:31:26;;;;;;;12.77;5.57;;;;;;;;;;6119497;23;20219;-89
2021/08/18 09:34:32;;;;;;;9.23;5.10;;;;;;;;;;6121494;23;20180;-88
2021/08/18 09:37:38;;;;;;;13.93;5.45;;;;;;;;;;6120366;23;20169;-89
2021/08/18 09:40:44;;;;;;;9.63;4.82;;;;;;;;;;6119774;23;20173;-89
2021/08/18 09:43:49;;;;;;;12.95;5.38;;;;;;;;;;6117908;23;20305;-89
2021/08/18 09:47:05;;;;;;;12.35;5.32;;;;;;;;;;6118367;23;20164;-89
2021/08/18 09:50:12;;;;;;;10.02;4.97;;;;;;;;;;6119197;23;20210;-88
2021/08/18 09:53:18;;;;;;;10.80;5.57;;;;;;;;;;6119619;23;20233;-90
2021/08/18 09:56:24;;;;;;;13.20;5.30;;;;;;;;;;6120872;23;20172;-90
2021/08/18 09:59:29;;;;;;;14.68;5.30;;;;;;;;;;6141964;23;20190;-89
2021/08/18 10:02:34;;;;;;;11.77;5.30;;;;;;;;;;6120588;23;20193;-89
2021/08/18 10:05:41;;;;;;;13.35;5.15;;;;;;;;;;6119375;23;20297;-88
2021/08/18 10:08:46;;;;;;;10.05;4.82;;;;;;;;;;6119036;23;20613;-89
2021/08/18 10:11:51;;;;;;;10.70;4.57;;;;;;;;;;6120437;23;20178;-90
2021/08/18 10:14:56;;;;;;;8.07;4.40;;;;;;;;;;6119677;23;20174;-90
2021/08/18 10:21:29;;;;;;;13.68;5.18;;;;;;;;;;6132359;23;20217;-89
2021/08/18 10:24:38;;;;;;;11.35;4.50;;;;;;;;;;6125223;23;20229;-89
2021/08/18 10:27:49;;;;;;;10.90;5.28;;;;;;;;;;6125652;23;20172;-89
2021/08/18 10:30:55;;;;;;;12.60;5.00;;;;;;;;;;6123274;23;20684;-91
2021/08/18 10:34:04;;;;;;;11.20;4.50;;;;;;;;;;6122664;23;20157;-88
2021/08/18 10:37:22;;;;;;;13.35;5.75;;;;;;;;;;6125550;23;20492;-90
2021/08/18 10:40:35;;;;;;;8.98;4.85;;;;;;;;;;6124461;23;20161;-89
2021/08/18 10:44:02;;;;;;;10.02;5.30;;;;;;;;;;6126059;23;20193;-89
2021/08/18 10:50:46;;;;;;;12.32;6.00;;;;;;;;;;6121481;23;20261;-88
2021/08/18 10:53:54;;;;;;;14.40;5.97;;;;;;;;;;6123255;23;20161;-88
2021/08/18 10:56:59;;;;;;;11.00;5.32;;;;;;;;;;6121193;23;20152;-88
2021/08/18 11:00:11;;;;;;;12.38;5.10;;;;;;;;;;6119688;23;20195;-88
2021/08/18 11:03:26;;;;;;;13.20;5.32;;;;;;;;;;6139203;23;20659;-89
2021/08/18 11:06:46;;;;;;;13.77;5.60;;;;;;;;;;6139073;23;20205;-88
2021/08/18 11:10:02;;;;;;;15.43;5.60;;;;;;;;;;6123711;23;20221;-89
2021/08/18 11:13:07;;;;;;;9.98;5.47;;;;;;;;;;6125883;23;20166;-89
2021/08/18 11:16:13;;;;;;;10.48;5.43;;;;;;;;;;6124376;23;20172;-87
2021/08/18 11:19:20;;;;;;;12.43;5.20;;;;;;;;;;6123188;23;20479;-87
2021/08/18 11:22:25;;;;;;;9.93;4.50;;;;;;;;;;6127279;23;20177;-90
2021/08/18 11:25:42;;;;;;;10.25;4.95;;;;;;;;;;6122858;23;20165;-88
2021/08/18 11:28:53;;;;;;;11.70;5.15;;;;;;;;;;6121484;23;20245;-90
2021/08/18 11:31:59;;;;;;;10.07;4.63;;;;;;;;;;6122380;23;20249;-89
2021/08/18 11:35:04;;;;;;;11.57;5.53;;;;;;;;;;6122018;23;20185;-91
2021/08/18 11:38:10;;;;;;;12.85;4.90;;;;;;;;;;6123007;23;20225;-89
2021/08/18 11:41:17;;;;;;;11.13;5.03;;;;;;;;;;6120976;23;20189;-90
2021/08/18 11:44:26;;;;;;;12.05;4.95;;;;;;;;;;6119999;23;20196;-88
2021/08/18 11:47:33;;;;;;;10.52;5.00;;;;;;;;;;6120966;23;20328;-90
2021/08/18 11:50:38;;;;;;;9.55;5.25;;;;;;;;;;6122731;23;20669;-87
2021/08/18 11:53:52;;;;;;;13.32;5.18;;;;;;;;;;6123638;23;20293;-90
2021/08/18 11:57:06;;;;;;;14.30;5.40;;;;;;;;;;6123012;23;20181;-88
2021/08/18 12:00:13;;;;;;;12.98;5.35;;;;;;;;;;6122389;23;20648;-89
2021/08/18 12:03:24;;;;;;;13.18;5.20;;;;;;;;;;6123863;23;20267;-89
2021/08/18 12:06:30;;;;;;;11.73;5.50;;;;;;;;;;6124393;23;20236;-88
2021/08/18 12:09:35;;;;;;;15.23;5.35;;;;;;;;;;6123755;23;20172;-88
2021/08/18 12:12:52;;;;;;;12.18;5.57;;;;;;;;;;6123617;23;20173;-89
2021/08/18 12:15:58;;;;;;;12.90;5.38;;;;;;;;;;6126263;23;20170;-89
2021/08/18 12:19:16;;;;;;;14.95;5.60;;;;;;;;;;6123916;23;20509;-88
2021/08/18 12:22:27;;;;;;;13.95;5.38;;;;;;;;;;6122328;23;20225;-87
2021/08/18 12:25:33;;;;;;;11.95;5.80;;;;;;;;;;6120555;23;20181;-90
2021/08/18 12:28:56;;;;;;;11.05;5.10;;;;;;;;;;6120443;23;20173;-89
2021/08/18 12:32:02;;;;;;;12.68;4.93;;;;;;;;;;6138220;23;20165;-89
2021/08/18 12:35:09;;;;;;;13.25;6.03;;;;;;;;;;6122761;23;20173;-89
2021/08/18 12:38:14;;;;;;;14.85;6.30;;;;;;;;;;6124065;23;20169;-89
2021/08/18 12:41:19;;;;;;;11.40;5.80;;;;;;;;;;6125163;23;20696;-87
2021/08/18 12:44:31;;;;;;;12.57;5.70;;;;;;;;;;6123119;23;20205;-88
2021/08/18 12:47:37;;;;;;;9.75;5.15;;;;;;;;;;6121276;23;20173;-88
2021/08/18 12:50:42;;;;;;;12.38;5.18;;;;;;;;;;6122588;23;20166;-89
2021/08/18 12:53:48;;;;;;;16.80;5.78;;;;;;;;;;6121212;23;20178;-88
2021/08/18 12:56:53;;;;;;;10.38;5.30;;;;;;;;;;6137668;23;20178;-87
2021/08/18 12:59:59;;;;;;;12.40;5.88;;;;;;;;;;6121164;23;20180;-87
2021/08/18 13:03:06;;;;;;;10.95;5.13;;;;;;;;;;6123860;23;20182;-88
2021/08/18 13:06:14;;;;;;;12.05;5.05;;;;;;;;;;6123143;23;20189;-89
2021/08/18 13:09:19;;;;;;;12.18;5.47;;;;;;;;;;6121483;23;20177;-89
2021/08/18 13:12:25;;;;;;;9.02;4.47;;;;;;;;;;6120188;23;20177;-88
2021/08/18 13:15:31;;;;;;;11.52;5.63;;;;;;;;;;6122648;23;20293;-88
2021/08/18 13:18:37;;;;;;;11.73;5.20;;;;;;;;;;6123533;23;20169;-90
2021/08/18 13:21:44;;;;;;;10.10;5.35;;;;;;;;;;6119520;23;20169;-89
2021/08/18 13:24:50;;;;;;;11.93;5.55;;;;;;;;;;6120832;23;20480;-90
2021/08/18 13:27:55;;;;;;;11.90;5.47;;;;;;;;;;6119123;23;20213;-89
2021/08/18 13:31:02;;;;;;;10.52;5.45;;;;;;;;;;6119659;23;20172;-90
2021/08/18 13:34:09;;;;;;;12.50;5.30;;;;;;;;;;6117957;23;20717;-90
2021/08/18 13:37:13;;;;;;;13.40;5.50;;;;;;;;;;6118010;23;20165;-90
2021/08/18 13:40:19;;;;;;;11.23;5.60;;;;;;;;;;6118813;23;20169;-89
2021/08/18 13:43:24;;;;;;;14.38;6.55;;;;;;;;;;6121174;23;20173;-89
2021/08/18 13:46:32;;;;;;;12.23;5.90;;;;;;;;;;6118928;23;20169;-89
2021/08/18 13:49:36;;;;;;;17.55;7.22;;;;;;;;;;6120148;23;20184;-91
2021/08/18 13:52:42;;;;;;;13.75;6.32;;;;;;;;;;6124111;23;20610;-91
2021/08/18 13:55:48;;;;;;;15.98;7.35;;;;;;;;;;6122344;23;20628;-90
2021/08/18 13:58:54;;;;;;;17.40;7.32;;;;;;;;;;6122660;23;20235;-90
2021/08/18 14:02:00;;;;;;;16.05;7.38;;;;;;;;;;6121925;23;20153;-90
2021/08/18 14:05:07;;;;;;;16.30;7.53;;;;;;;;;;6120339;23;20534;-90
2021/08/18 14:08:12;;;;;;;18.15;7.35;;;;;;;;;;6119929;23;20170;-90
2021/08/18 14:11:17;;;;;;;16.70;7.53;;;;;;;;;;6122977;23;20169;-90
2021/08/18 14:14:22;;;;;;;17.67;7.40;;;;;;;;;;6123576;23;20192;-90
2021/08/18 14:17:29;;;;;;;17.40;8.27;;;;;;;;;;6123006;23;20497;-89
2021/08/18 14:23:54;;;;;;;19.20;8.23;;;;;;;;;;6142854;23;20193;-90
2021/08/18 14:27:00;;;;;;;15.80;7.55;;;;;;;;;;6129160;23;20173;-90
2021/08/18 14:30:09;;;;;;;14.38;7.18;;;;;;;;;;6123650;23;20217;-90
2021/08/18 14:33:15;;;;;;;16.38;7.22;;;;;;;;;;6130197;23;20182;-90
2021/08/18 14:36:21;;;;;;;20.00;7.32;;;;;;;;;;6121476;23;20248;-90
2021/08/18 14:39:27;;;;;;;16.75;7.13;;;;;;;;;;6121373;23;20221;-90
2021/08/18 14:42:37;;;;;;;17.13;7.50;;;;;;;;;;6107654;23;20188;-90
2021/08/18 14:45:45;;;;;;;14.63;6.93;;;;;;;;;;6126524;23;20188;-90
2021/08/18 14:48:52;;;;;;;13.90;6.40;;;;;;;;;;6124518;23;20505;-89
2021/08/18 14:52:03;;;;;;;14.65;6.82;;;;;;;;;;6128192;23;20629;-90
2021/08/18 14:55:09;;;;;;;12.18;6.55;;;;;;;;;;6125688;23;20173;-91
2021/08/18 14:58:15;;;;;;;14.32;6.40;;;;;;;;;;6127055;23;20161;-89
2021/08/18 15:01:21;;;;;;;17.45;7.57;;;;;;;;;;6127087;23;20197;-90
2021/08/18 15:04:31;;;;;;;15.98;6.60;;;;;;;;;;6125973;23;20193;-90
2021/08/18 15:07:37;;;;;;;13.75;6.65;;;;;;;;;;6125962;23;20165;-91
2021/08/18 15:10:45;;;;;;;13.52;6.25;;;;;;;;;;6124744;23;20233;-90
2021/08/18 15:13:54;;;;;;;12.60;5.07;;;;;;;;;;6142796;23;20291;-90
2021/08/18 15:17:00;;;;;;;15.18;6.13;;;;;;;;;;6125361;23;20170;-90
2021/08/18 15:20:08;;;;;;;12.68;5.13;;;;;;;;;;6110753;23;20173;-91
2021/08/18 15:23:15;;;;;;;9.10;4.95;;;;;;;;;;6124730;23;20253;-90
2021/08/18 15:26:20;;;;;;;10.20;5.32;;;;;;;;;;6138330;23;20165;-91
2021/08/18 15:29:26;;;;;;;14.52;5.45;;;;;;;;;;6119727;23;20605;-91
2021/08/18 15:32:31;;;;;;;12.85;5.70;;;;;;;;;;6122082;23;20218;-90
2021/08/18 15:35:38;;;;;;;10.13;5.32;;;;;;;;;;6118832;23;20169;-90
2021/08/18 15:38:43;;;;;;;14.30;5.57;;;;;;;;;;6118313;23;20181;-89
2021/08/18 15:41:48;;;;;;;13.75;5.60;;;;;;;;;;6137741;23;20157;-90
2021/08/18 15:44:53;;;;;;;10.77;5.30;;;;;;;;;;6119159;23;20196;-90
2021/08/18 15:47:58;;;;;;;10.95;5.50;;;;;;;;;;6119320;23;20192;-89
2021/08/18 15:51:04;;;;;;;11.70;5.43;;;;;;;;;;6119683;23;20181;-89
2021/08/18 15:54:09;;;;;;;12.32;5.35;;;;;;;;;;6120430;23;20185;-90
2021/08/18 15:57:14;;;;;;;12.10;6.03;;;;;;;;;;6135932;23;20189;-90
2021/08/18 16:00:20;;;;;;;11.85;5.32;;;;;;;;;;6122307;23;20196;-90
2021/08/18 16:03:25;;;;;;;11.30;5.50;;;;;;;;;;6118160;23;20172;-90
2021/08/18 16:06:32;;;;;;;12.73;6.13;;;;;;;;;;6119200;23;20197;-90
2021/08/18 16:09:37;;;;;;;14.13;5.88;;;;;;;;;;6125344;23;20181;-88
2021/08/18 16:12:43;;;;;;;12.45;6.32;;;;;;;;;;6118333;23;20177;-88
2021/08/18 16:15:48;;;;;;;12.55;5.78;;;;;;;;;;6120276;23;20169;-89
2021/08/18 16:18:53;;;;;;;17.38;5.53;;;;;;;;;;6119811;23;20264;-89
2021/08/18 16:21:59;;;;;;;14.75;5.95;;;;;;;;;;6137657;23;20249;-89
2021/08/18 16:25:05;;;;;;;14.82;5.55;;;;;;;;;;6119380;23;20244;-89
2021/08/18 16:28:09;;;;;;;12.75;5.53;;;;;;;;;;6120102;23;20177;-89
2021/08/18 16:31:14;;;;;;;13.23;6.22;;;;;;;;;;6121323;23;20165;-89
2021/08/18 16:34:20;;;;;;;10.77;5.72;;;;;;;;;;6119023;23;20172;-90
2021/08/18 16:37:27;;;;;;;10.02;5.45;;;;;;;;;;6119980;23;20579;-90
2021/08/18 16:40:32;;;;;;;13.75;6.15;;;;;;;;;;6120667;23;20235;-91
2021/08/18 16:43:37;;;;;;;11.73;5.70;;;;;;;;;;6124659;23;20170;-89
2021/08/18 16:46:42;;;;;;;16.70;5.85;;;;;;;;;;6118978;23;20173;-90
2021/08/18 16:49:47;;;;;;;10.43;5.50;;;;;;;;;;6119691;23;20241;-90
2021/08/18 16:52:54;;;;;;;13.27;5.60;;;;;;;;;;6119835;23;20501;-90
2021/08/18 16:55:59;;;;;;;10.90;5.25;;;;;;;;;;6120498;23;20193;-90
2021/08/18 16:59:04;;;;;;;10.90;5.38;;;;;;;;;;6118682;23;20181;-89
2021/08/18 17:02:09;;;;;;;9.68;5.05;;;;;;;;;;6118695;23;20153;-89
2021/08/18 17:05:15;;;;;;;9.68;4.78;;;;;;;;;;6119070;23;20193;-90
2021/08/18 17:08:26;;;;;;;12.40;5.40;;;;;;;;;;6117283;23;20617;-89
2021/08/18 17:11:32;;;;;;;10.38;5.13;;;;;;;;;;6118686;23;20673;-90
2021/08/18 17:14:37;;;;;;;11.10;4.80;;;;;;;;;;6118396;23;20489;-88
2021/08/18 17:17:42;;;;;;;11.15;5.35;;;;;;;;;;6135560;23;20173;-90
2021/08/18 17:20:48;;;;;;;12.48;5.32;;;;;;;;;;6118790;23;20172;-89
2021/08/18 17:23:55;;;;;;;12.18;5.43;;;;;;;;;;6119977;23;20290;-89
2021/08/18 17:27:00;;;;;;;14.15;5.10;;;;;;;;;;6118113;23;20169;-90
2021/08/18 17:30:06;;;;;;;16.40;5.63;;;;;;;;;;6118985;23;20503;-88
2021/08/18 17:33:11;;;;;;;15.30;6.30;;;;;;;;;;6120751;23;20258;-90
2021/08/18 17:36:16;;;;;;;16.45;5.95;;;;;;;;;;6119892;23;20177;-90
2021/08/18 17:39:23;;;;;;;10.20;5.07;;;;;;;;;;6121352;23;20168;-90
2021/08/18 17:42:28;;;;;;;10.57;5.45;;;;;;;;;;6119023;23;20168;-89
2021/08/18 17:45:33;;;;;;;12.48;5.18;;;;;;;;;;6120513;23;20196;-88
2021/08/18 17:48:37;;;;;;;14.55;5.72;;;;;;;;;;6121056;23;20788;-89
2021/08/18 17:51:44;;;;;;;10.45;4.93;;;;;;;;;;6121713;23;20242;-89
2021/08/18 17:54:50;;;;;;;10.60;5.03;;;;;;;;;;6120818;23;20172;-89
2021/08/18 17:58:02;;;;;;;9.68;5.00;;;;;;;;;;6119069;23;20298;-89
2021/08/18 18:01:07;;;;;;;15.13;5.28;;;;;;;;;;6123070;23;20172;-90
2021/08/18 18:04:11;;;;;;;12.10;4.95;;;;;;;;;;6123158;23;20590;-89
2021/08/18 18:07:17;;;;;;;14.20;5.78;;;;;;;;;;6120945;23;20249;-89
2021/08/18 18:10:23;;;;;;;14.07;5.18;;;;;;;;;;6122257;23;20169;-88
2021/08/18 18:13:28;;;;;;;9.95;4.90;;;;;;;;;;6121019;23;20185;-90
2021/08/18 18:16:33;;;;;;;12.25;5.50;;;;;;;;;;6121921;23;20174;-90
2021/08/18 18:19:38;;;;;;;10.82;5.10;;;;;;;;;;6122176;23;20165;-90
2021/08/18 18:26:57;;;;;;;13.88;5.40;;;;;;;;;;6140826;23;20219;-89
2021/08/18 18:30:02;;;;;;;11.90;5.43;;;;;;;;;;6122342;23;20173;-89
2021/08/18 18:33:07;;;;;;;12.70;5.82;;;;;;;;;;6122868;23;20226;-89
2021/08/18 18:36:12;;;;;;;13.27;5.60;;;;;;;;;;6122006;23;20161;-90
2021/08/18 18:39:18;;;;;;;12.52;5.53;;;;;;;;;;6120544;23;20173;-89
2021/08/18 18:42:24;;;;;;;13.75;5.35;;;;;;;;;;6120234;23;20657;-89
2021/08/18 18:45:29;;;;;;;12.77;5.57;;;;;;;;;;6119587;23;20225;-90
2021/08/18 18:48:34;;;;;;;11.80;5.55;;;;;;;;;;6121298;23;20169;-90
2021/08/18 18:51:41;;;;;;;14.85;5.93;;;;;;;;;;6138993;23;20188;-89
2021/08/18 18:54:46;;;;;;;14.23;6.32;;;;;;;;;;6120773;23;20185;-91
2021/08/18 18:57:53;;;;;;;13.15;6.03;;;;;;;;;;6120518;23;20166;-90
2021/08/18 19:00:59;;;;;;;18.13;5.50;;;;;;;;;;6119652;23;20200;-90
2021/08/18 19:04:05;;;;;;;12.88;6.60;;;;;;;;;;6122157;23;20173;-89